createdAt,value
2022-09-24T00:01:51.703Z,19.60
2022-09-24T00:04:20.246Z,18.60
2022-09-24T00:06:49.873Z,19.30
2022-09-24T00:09:21.796Z,18.70
2022-09-24T00:11:51.513Z,18.38
2022-09-24T00:14:20.163Z,17.70
2022-09-24T00:16:48.238Z,15.88
2022-09-24T00:19:16.632Z,16.55
2022-09-24T00:21:44.770Z,18.08
2022-09-24T00:24:37.699Z,16.42
2022-09-24T00:27:06.005Z,21.60
2022-09-24T00:29:35.641Z,17.88
2022-09-24T00:32:04.783Z,15.70
2022-09-24T00:34:33.018Z,17.30
2022-09-24T00:37:01.037Z,15.70
2022-09-24T00:39:30.394Z,14.52
2022-09-24T00:41:58.260Z,15.18
2022-09-24T00:44:53.631Z,16.50
2022-09-24T00:47:29.975Z,16.20
2022-09-24T00:50:08.015Z,15.57
2022-09-24T00:52:39.143Z,15.10
2022-09-24T00:55:10.529Z,16.00
2022-09-24T00:57:39.649Z,15.07
2022-09-24T01:00:08.714Z,14.90
2022-09-24T01:02:38.229Z,16.00
2022-09-24T01:05:06.942Z,17.30
2022-09-24T01:07:35.326Z,17.80
2022-09-24T01:10:03.505Z,17.17
2022-09-24T01:12:37.958Z,17.60
2022-09-24T01:15:17.015Z,18.80
2022-09-24T01:17:52.367Z,17.90
2022-09-24T01:20:46.758Z,19.27
2022-09-24T01:23:38.188Z,18.83
2022-09-24T01:26:20.772Z,20.95
2022-09-24T01:29:21.571Z,19.83
2022-09-24T01:31:55.829Z,21.98
2022-09-24T01:34:29.770Z,25.35
2022-09-24T01:36:59.756Z,21.95
2022-09-24T01:39:29.138Z,23.20
2022-09-24T01:41:57.455Z,24.02
2022-09-24T01:44:27.187Z,23.35
2022-09-24T01:46:56.197Z,25.13
2022-09-24T01:49:24.336Z,24.27
2022-09-24T01:51:56.479Z,23.48
2022-09-24T01:54:28.782Z,29.75
2022-09-24T01:57:01.689Z,24.70
2022-09-24T01:59:36.683Z,22.27
2022-09-24T02:02:11.009Z,30.23
2022-09-24T02:04:43.528Z,24.80
2022-09-24T02:07:16.120Z,24.90
2022-09-24T02:09:45.126Z,24.02
2022-09-24T02:12:18.375Z,24.77
2022-09-24T02:14:52.591Z,23.88
2022-09-24T02:17:23.125Z,22.48
2022-09-24T02:19:51.652Z,24.25
2022-09-24T02:22:19.571Z,27.02
2022-09-24T02:24:50.773Z,22.63
2022-09-24T02:27:19.507Z,21.48
2022-09-24T02:29:49.058Z,22.73
2022-09-24T02:32:20.421Z,22.77
2022-09-24T02:35:02.014Z,23.73
2022-09-24T02:37:30.375Z,22.42
2022-09-24T02:39:58.439Z,22.38
2022-09-24T02:42:26.449Z,23.08
2022-09-24T02:44:57.390Z,23.70
2022-09-24T02:47:25.469Z,22.23
2022-09-24T02:49:53.601Z,23.05
2022-09-24T02:52:22.385Z,21.98
2022-09-24T02:54:51.163Z,21.00
2022-09-24T02:57:19.428Z,20.42
2022-09-24T02:59:47.433Z,22.20
2022-09-24T03:02:16.894Z,20.13
2022-09-24T03:04:44.873Z,21.17
2022-09-24T03:07:14.503Z,21.95
2022-09-24T03:09:42.620Z,22.02
2022-09-24T03:12:10.858Z,19.75
2022-09-24T03:14:38.710Z,22.33
2022-09-24T03:17:06.599Z,21.15
2022-09-24T03:19:35.867Z,23.30
2022-09-24T03:22:03.978Z,20.83
2022-09-24T03:24:31.944Z,21.65
2022-09-24T03:26:59.774Z,22.88
2022-09-24T03:29:41.648Z,23.02
2022-09-24T03:32:09.487Z,22.35
2022-09-24T03:34:38.600Z,24.08
2022-09-24T03:37:08.468Z,22.10
2022-09-24T03:39:36.307Z,22.13
2022-09-24T03:42:04.261Z,20.75
2022-09-24T03:44:32.216Z,27.30
2022-09-24T03:47:00.047Z,22.55
2022-09-24T03:49:28.017Z,22.75
2022-09-24T03:51:57.237Z,21.40
2022-09-24T03:54:25.108Z,22.15
2022-09-24T03:56:52.931Z,21.48
2022-09-24T03:59:20.940Z,20.65
2022-09-24T04:01:48.796Z,21.20
2022-09-24T04:04:16.792Z,20.73
2022-09-24T04:06:44.702Z,20.80
2022-09-24T04:09:13.887Z,19.83
2022-09-24T04:11:42.697Z,19.00
2022-09-24T04:14:10.544Z,19.95
2022-09-24T04:16:38.410Z,20.65
2022-09-24T04:19:08.089Z,19.67
2022-09-24T04:21:36.048Z,20.15
2022-09-24T04:24:04.165Z,19.08
2022-09-24T04:26:33.302Z,19.33
2022-09-24T04:29:01.087Z,19.90
2022-09-24T04:31:29.206Z,17.30
2022-09-24T04:33:57.273Z,18.23
2022-09-24T04:36:25.256Z,19.75
2022-09-24T04:38:53.064Z,19.88
2022-09-24T04:41:20.956Z,19.15
2022-09-24T04:43:51.320Z,17.73
2022-09-24T04:46:19.884Z,19.27
2022-09-24T04:48:47.718Z,17.50
2022-09-24T04:51:17.599Z,18.45
2022-09-24T04:53:47.812Z,17.73
2022-09-24T04:56:15.682Z,17.73
2022-09-24T04:58:43.693Z,17.70
2022-09-24T05:01:13.896Z,18.02
2022-09-24T05:03:41.727Z,18.58
2022-09-24T05:06:09.744Z,17.85
2022-09-24T05:08:37.701Z,16.17
2022-09-24T05:11:05.748Z,16.85
2022-09-24T05:13:33.913Z,17.67
2022-09-24T05:16:02.064Z,18.35
2022-09-24T05:18:31.448Z,16.17
2022-09-24T05:20:59.321Z,17.67
2022-09-24T05:23:27.213Z,17.10
2022-09-24T05:26:12.675Z,15.90
2022-09-24T05:28:42.792Z,16.50
2022-09-24T05:31:10.819Z,15.57
2022-09-24T05:33:40.364Z,15.60
2022-09-24T05:36:08.353Z,21.53
2022-09-24T05:38:38.832Z,17.85
2022-09-24T05:41:09.383Z,16.35
2022-09-24T05:43:37.895Z,16.58
2022-09-24T05:46:06.347Z,16.08
2022-09-24T05:48:34.576Z,16.40
2022-09-24T05:51:03.856Z,15.77
2022-09-24T05:53:31.816Z,15.68
2022-09-24T05:55:59.716Z,15.65
2022-09-24T05:58:27.871Z,16.23
2022-09-24T06:00:56.019Z,16.52
2022-09-24T06:03:24.051Z,16.85
2022-09-24T06:05:52.092Z,16.35
2022-09-24T06:08:22.115Z,18.27
2022-09-24T06:10:50.756Z,17.35
2022-09-24T06:13:20.837Z,16.23
2022-09-24T06:15:48.769Z,16.50
2022-09-24T06:18:16.913Z,16.83
2022-09-24T06:20:46.899Z,14.88
2022-09-24T06:23:14.884Z,16.63
2022-09-24T06:25:44.254Z,15.85
2022-09-24T06:28:12.118Z,15.75
2022-09-24T06:30:41.229Z,16.35
2022-09-24T06:33:11.359Z,15.25
2022-09-24T06:35:40.935Z,18.33
2022-09-24T06:38:12.386Z,18.70
2022-09-24T06:40:40.900Z,16.38
2022-09-24T06:43:11.940Z,17.35
2022-09-24T06:45:40.896Z,18.88
2022-09-24T06:48:10.671Z,17.13
2022-09-24T06:50:41.536Z,16.52
2022-09-24T06:53:10.986Z,16.08
2022-09-24T06:55:40.298Z,17.05
2022-09-24T06:58:11.856Z,15.55
2022-09-24T07:00:40.245Z,16.70
2022-09-24T07:03:08.870Z,18.00
2022-09-24T07:05:42.555Z,16.13
2022-09-24T07:08:11.695Z,16.88
2022-09-24T07:10:43.979Z,17.30
2022-09-24T07:13:14.908Z,15.98
2022-09-24T07:15:44.078Z,16.23
2022-09-24T07:18:13.399Z,18.17
2022-09-24T07:20:41.979Z,18.55
2022-09-24T07:23:12.183Z,20.98
2022-09-24T07:25:40.621Z,23.33
2022-09-24T07:28:11.132Z,21.08
2022-09-24T07:30:41.579Z,23.40
2022-09-24T07:33:09.882Z,22.83
2022-09-24T07:35:39.440Z,22.20
2022-09-24T07:38:12.066Z,23.25
2022-09-24T07:40:40.748Z,22.98
2022-09-24T07:43:12.369Z,22.42
2022-09-24T07:45:43.200Z,22.65
2022-09-24T07:48:13.011Z,23.80
2022-09-24T07:50:42.712Z,23.27
2022-09-24T07:53:12.479Z,24.52
2022-09-24T07:55:41.039Z,23.98
2022-09-24T07:58:12.835Z,22.92
2022-09-24T08:00:42.916Z,22.55
2022-09-24T08:03:11.444Z,19.45
2022-09-24T08:05:47.883Z,22.50
2022-09-24T08:08:18.965Z,23.17
2022-09-24T08:10:47.149Z,24.98
2022-09-24T08:13:15.983Z,20.40
2022-09-24T08:15:46.220Z,22.55
2022-09-24T08:18:14.280Z,21.33
2022-09-24T08:20:42.406Z,22.88
2022-09-24T08:23:11.324Z,20.08
2022-09-24T08:25:39.617Z,24.30
2022-09-24T08:28:10.632Z,21.33
2022-09-24T08:30:40.027Z,24.60
2022-09-24T08:33:09.601Z,22.85
2022-09-24T08:35:40.139Z,20.38
2022-09-24T08:38:09.118Z,22.95
2022-09-24T08:40:39.968Z,19.73
2022-09-24T08:43:20.771Z,21.88
2022-09-24T08:46:12.409Z,22.90
2022-09-24T08:48:45.666Z,22.58
2022-09-24T08:51:18.047Z,19.65
2022-09-24T08:53:50.165Z,19.60
2022-09-24T08:56:22.532Z,23.20
2022-09-24T08:58:55.487Z,21.80
2022-09-24T09:01:34.520Z,23.35
2022-09-24T09:04:15.659Z,21.88
2022-09-24T09:06:58.745Z,19.98
2022-09-24T09:09:33.825Z,21.02
2022-09-24T09:12:05.138Z,24.38
2022-09-24T09:14:42.525Z,20.65
2022-09-24T09:17:25.366Z,20.85
2022-09-24T09:19:58.559Z,19.58
2022-09-24T09:22:31.003Z,20.50
2022-09-24T09:25:04.998Z,22.88
2022-09-24T09:27:33.212Z,22.25
2022-09-24T09:30:10.405Z,21.08
2022-09-24T09:32:52.078Z,23.08
2022-09-24T09:35:29.321Z,19.42
2022-09-24T09:38:08.148Z,18.83
2022-09-24T09:40:42.785Z,17.45
2022-09-24T09:43:13.224Z,16.90
2022-09-24T09:45:47.710Z,15.07
2022-09-24T09:48:20.919Z,17.15
2022-09-24T09:50:53.305Z,14.90
2022-09-24T09:53:22.167Z,14.77
2022-09-24T09:55:55.457Z,14.02
2022-09-24T09:58:25.832Z,15.50
2022-09-24T10:01:03.911Z,13.57
2022-09-24T10:03:34.890Z,17.42
2022-09-24T10:06:07.812Z,13.75
2022-09-24T10:08:35.959Z,13.57
2022-09-24T10:11:04.777Z,15.90
2022-09-24T10:13:33.094Z,12.55
2022-09-24T10:16:04.232Z,13.30
2022-09-24T10:18:35.327Z,13.27
2022-09-24T10:21:09.700Z,12.45
2022-09-24T10:23:40.150Z,11.32
2022-09-24T10:26:09.084Z,12.30
2022-09-24T10:29:00.715Z,14.13
2022-09-24T10:31:32.796Z,11.88
2022-09-24T10:34:02.577Z,12.45
2022-09-24T10:36:33.657Z,14.32
2022-09-24T10:39:10.369Z,12.30
2022-09-24T10:41:38.768Z,12.77
2022-09-24T10:44:12.181Z,12.65
2022-09-24T10:47:09.031Z,12.85
2022-09-24T10:50:00.833Z,12.40
2022-09-24T10:52:54.851Z,12.60
2022-09-24T10:55:40.894Z,11.88
2022-09-24T10:58:34.960Z,13.13
2022-09-24T11:01:15.479Z,12.82
2022-09-24T11:03:57.175Z,13.55
2022-09-24T11:06:38.212Z,12.93
2022-09-24T11:09:19.021Z,13.20
2022-09-24T11:11:56.947Z,13.70
2022-09-24T11:14:46.657Z,13.80
2022-09-24T11:17:33.235Z,14.18
2022-09-24T11:20:16.360Z,13.13
2022-09-24T11:23:08.252Z,13.05
2022-09-24T11:25:45.872Z,13.32
2022-09-24T11:28:29.728Z,13.80
2022-09-24T11:31:07.528Z,13.45
2022-09-24T11:33:54.128Z,12.43
2022-09-24T11:36:34.996Z,12.60
2022-09-24T11:39:21.320Z,11.95
2022-09-24T11:41:59.915Z,13.00
2022-09-24T11:44:56.744Z,13.10
2022-09-24T11:47:37.837Z,11.48
2022-09-24T11:50:21.988Z,11.35
2022-09-24T11:52:54.975Z,10.70
2022-09-24T11:55:31.811Z,10.85
2022-09-24T11:58:13.544Z,11.25
2022-09-24T12:00:47.534Z,15.07
2022-09-24T12:03:25.907Z,10.10
2022-09-24T12:06:00.639Z,8.60
2022-09-24T12:08:33.614Z,8.13
2022-09-24T12:11:05.582Z,10.52
2022-09-24T12:13:41.299Z,8.05
2022-09-24T12:16:14.457Z,5.20
2022-09-24T12:18:51.436Z,4.05
2022-09-24T12:21:23.535Z,7.75
2022-09-24T12:23:56.240Z,3.70
2022-09-24T12:26:32.283Z,7.30
2022-09-24T12:29:25.758Z,6.30
2022-09-24T12:32:16.428Z,5.20
2022-09-24T12:34:51.942Z,4.30
2022-09-24T12:37:24.723Z,3.35
2022-09-24T12:40:01.111Z,5.95
2022-09-24T12:42:35.393Z,3.90
2022-09-24T12:45:10.544Z,4.90
2022-09-24T12:47:48.084Z,2.47
2022-09-24T12:50:23.948Z,3.78
2022-09-24T12:52:52.474Z,3.00
2022-09-24T12:55:23.116Z,3.72
2022-09-24T12:57:54.204Z,5.13
2022-09-24T13:00:40.952Z,1.63
2022-09-24T13:03:24.482Z,1.95
2022-09-24T13:05:52.642Z,4.30
2022-09-24T13:08:28.284Z,2.45
2022-09-24T13:10:58.846Z,4.03
2022-09-24T13:13:29.357Z,9.02
2022-09-24T13:16:04.896Z,4.38
2022-09-24T13:18:34.733Z,3.72
2022-09-24T13:21:06.027Z,4.47
2022-09-24T13:23:48.397Z,2.75
2022-09-24T13:26:33.728Z,3.33
2022-09-24T13:29:03.509Z,3.15
2022-09-24T13:31:41.572Z,3.28
2022-09-24T13:34:20.896Z,4.67
2022-09-24T13:36:54.283Z,2.67
2022-09-24T13:39:25.961Z,4.32
2022-09-24T13:42:01.483Z,3.45
2022-09-24T13:44:32.629Z,4.10
2022-09-24T13:47:06.447Z,4.93
2022-09-24T13:49:35.757Z,5.35
2022-09-24T13:52:14.054Z,2.42
2022-09-24T13:54:50.337Z,4.28
2022-09-24T13:57:23.493Z,2.10
2022-09-24T14:00:01.931Z,3.33
2022-09-24T14:02:35.090Z,7.45
2022-09-24T14:05:03.612Z,3.42
2022-09-24T14:07:31.849Z,3.13
2022-09-24T14:10:09.090Z,5.45
2022-09-24T14:12:37.392Z,5.60
2022-09-24T14:15:14.503Z,3.65
2022-09-24T14:20:19.780Z,5.47
2022-09-24T14:22:48.356Z,4.75
2022-09-24T14:25:19.730Z,3.10
2022-09-24T14:27:50.734Z,5.97
2022-09-24T14:30:22.347Z,5.80
2022-09-24T14:32:54.503Z,5.10
2022-09-24T14:35:29.990Z,4.82
2022-09-24T14:38:04.417Z,4.80
2022-09-24T14:40:41.840Z,3.92
2022-09-24T14:43:19.153Z,6.75
2022-09-24T14:45:48.476Z,3.63
2022-09-24T14:48:26.956Z,3.95
2022-09-24T14:50:57.124Z,5.93
2022-09-24T14:53:28.149Z,5.95
2022-09-24T14:55:57.379Z,5.18
2022-09-24T14:58:33.268Z,8.82
2022-09-24T15:01:03.259Z,7.55
2022-09-24T15:03:38.402Z,7.00
2022-09-24T15:06:19.085Z,9.43
2022-09-24T15:08:58.058Z,6.05
2022-09-24T15:11:28.801Z,8.07
2022-09-24T15:14:02.687Z,8.38
2022-09-24T15:16:33.605Z,4.72
2022-09-24T15:19:19.615Z,5.10
2022-09-24T15:21:50.863Z,11.32
2022-09-24T15:24:20.451Z,8.98
2022-09-24T15:26:51.025Z,15.50
2022-09-24T15:29:24.881Z,13.82
2022-09-24T15:31:53.442Z,13.95
2022-09-24T15:34:21.956Z,6.97
2022-09-24T15:36:55.374Z,9.18
2022-09-24T15:39:23.623Z,7.70
2022-09-24T15:41:51.699Z,7.40
2022-09-24T15:44:23.049Z,7.05
2022-09-24T15:46:52.209Z,7.10
2022-09-24T15:49:22.196Z,5.25
2022-09-24T15:51:54.356Z,7.28
2022-09-24T15:54:24.828Z,6.57
2022-09-24T15:56:53.168Z,7.32
2022-09-24T15:59:23.581Z,7.15
2022-09-24T16:01:55.712Z,8.05
2022-09-24T16:04:23.900Z,6.88
2022-09-24T16:06:53.354Z,9.38
2022-09-24T16:09:22.172Z,7.65
2022-09-24T16:11:50.236Z,5.03
2022-09-24T16:14:18.488Z,5.82
2022-09-24T16:16:46.735Z,4.82
2022-09-24T16:19:14.975Z,5.97
2022-09-24T16:21:43.193Z,4.97
2022-09-24T16:24:12.557Z,9.32
2022-09-24T16:26:40.556Z,7.95
2022-09-24T16:29:10.410Z,4.35
2022-09-24T16:31:38.581Z,8.00
2022-09-24T16:34:06.767Z,7.75
2022-09-24T16:36:34.923Z,6.18
2022-09-24T16:39:03.140Z,6.15
2022-09-24T16:41:34.598Z,6.28
2022-09-24T16:44:03.010Z,6.20
2022-09-24T16:46:31.511Z,9.07
2022-09-24T16:49:00.084Z,3.58
2022-09-24T16:51:28.128Z,7.15
2022-09-24T16:53:56.729Z,7.20
2022-09-24T16:56:24.973Z,5.63
2022-09-24T16:58:54.723Z,10.60
2022-09-24T17:01:23.257Z,6.63
2022-09-24T17:03:55.440Z,9.38
2022-09-24T17:06:25.321Z,10.00
2022-09-24T17:09:11.519Z,8.43
2022-09-24T17:11:40.690Z,10.02
2022-09-24T17:14:12.482Z,6.68
2022-09-24T17:16:41.086Z,5.20
2022-09-24T17:19:09.849Z,3.55
2022-09-24T17:21:40.298Z,4.15
2022-09-24T17:24:09.349Z,5.57
2022-09-24T17:26:39.241Z,6.95
2022-09-24T17:29:07.362Z,5.65
2022-09-24T17:31:36.976Z,5.65
2022-09-24T17:34:07.181Z,8.18
2022-09-24T17:36:36.188Z,6.75
2022-09-24T17:39:05.470Z,7.30
2022-09-24T17:41:34.104Z,5.85
2022-09-24T17:44:02.459Z,7.50
2022-09-24T17:46:32.043Z,10.55
2022-09-24T17:49:02.143Z,7.15
2022-09-24T17:51:32.956Z,5.55
2022-09-24T17:54:02.669Z,5.63
2022-09-24T17:56:33.102Z,5.47
2022-09-24T17:59:01.800Z,4.00
2022-09-24T18:01:33.434Z,3.45
2022-09-24T18:04:04.172Z,4.50
2022-09-24T18:06:33.626Z,4.55
2022-09-24T18:09:02.538Z,7.43
2022-09-24T18:11:33.332Z,3.42
2022-09-24T18:14:02.582Z,4.43
2022-09-24T18:16:32.467Z,4.22
2022-09-24T18:19:03.732Z,5.82
2022-09-24T18:21:31.978Z,4.18
2022-09-24T18:24:01.188Z,5.47
2022-09-24T18:26:32.562Z,8.65
2022-09-24T18:29:03.919Z,9.40
2022-09-24T18:31:32.930Z,9.93
2022-09-24T18:34:05.145Z,7.70
2022-09-24T18:36:34.926Z,3.25
2022-09-24T18:39:03.419Z,2.72
2022-09-24T18:41:32.059Z,4.65
2022-09-24T18:44:01.133Z,6.72
2022-09-24T18:46:31.419Z,3.33
2022-09-24T18:49:00.355Z,3.47
2022-09-24T18:51:31.383Z,3.63
2022-09-24T18:54:00.799Z,4.57
2022-09-24T18:56:29.015Z,3.72
2022-09-24T18:58:57.952Z,5.20
2022-09-24T19:01:26.927Z,4.18
2022-09-24T19:03:55.532Z,6.45
2022-09-24T19:06:23.637Z,6.78
2022-09-24T19:08:52.942Z,7.15
2022-09-24T19:11:21.517Z,8.75
2022-09-24T19:13:51.053Z,8.13
2022-09-24T19:16:20.848Z,2.78
2022-09-24T19:18:49.130Z,5.10
2022-09-24T19:21:17.186Z,3.67
2022-09-24T19:23:47.387Z,3.35
2022-09-24T19:26:18.876Z,3.80
2022-09-24T19:28:50.459Z,3.28
2022-09-24T19:31:21.820Z,5.80
2022-09-24T19:33:50.381Z,4.53
2022-09-24T19:36:18.922Z,5.63
2022-09-24T19:38:47.751Z,5.03
2022-09-24T19:41:21.327Z,4.63
2022-09-24T19:43:50.792Z,6.65
2022-09-24T19:46:20.613Z,5.63
2022-09-24T19:48:50.331Z,4.05
2022-09-24T19:51:20.542Z,3.47
2022-09-24T19:53:49.594Z,5.28
2022-09-24T19:56:22.288Z,4.43
2022-09-24T19:58:52.710Z,3.47
2022-09-24T20:01:21.930Z,5.15
2022-09-24T20:03:50.667Z,2.65
2022-09-24T20:06:21.070Z,4.88
2022-09-24T20:08:49.269Z,8.43
2022-09-24T20:11:20.923Z,5.97
2022-09-24T20:13:49.937Z,5.13
2022-09-24T20:16:19.597Z,7.53
2022-09-24T20:18:48.307Z,5.60
2022-09-24T20:21:18.333Z,6.88
2022-09-24T20:23:47.940Z,12.25
2022-09-24T20:26:35.633Z,5.85
2022-09-24T20:29:05.821Z,3.35
2022-09-24T20:31:34.309Z,3.58
2022-09-24T20:34:02.143Z,4.07
2022-09-24T20:36:30.194Z,6.35
2022-09-24T20:38:59.814Z,4.80
2022-09-24T20:41:29.200Z,3.65
2022-09-24T20:43:57.042Z,5.07
2022-09-24T20:46:26.532Z,4.83
2022-09-24T20:48:58.015Z,5.73
2022-09-24T20:51:27.855Z,4.72
2022-09-24T20:53:56.251Z,5.60
2022-09-24T20:56:24.407Z,2.83
2022-09-24T20:58:54.817Z,6.40
2022-09-24T21:01:24.287Z,2.30
2022-09-24T21:03:52.798Z,5.82
2022-09-24T21:06:22.866Z,7.43
2022-09-24T21:08:52.314Z,7.35
2022-09-24T21:11:22.416Z,4.97
2022-09-24T21:13:51.754Z,5.03
2022-09-24T21:16:23.731Z,3.60
2022-09-24T21:18:54.150Z,6.53
2022-09-24T21:21:23.927Z,4.27
2022-09-24T21:23:53.890Z,6.40
2022-09-24T21:26:25.740Z,7.33
2022-09-24T21:28:55.960Z,4.90
2022-09-24T21:31:27.560Z,4.43
2022-09-24T21:33:55.482Z,6.00
2022-09-24T21:36:25.711Z,3.60
2022-09-24T21:38:57.067Z,4.03
2022-09-24T21:41:26.300Z,3.03
2022-09-24T21:43:55.499Z,4.00
2022-09-24T21:46:26.106Z,6.40
2022-09-24T21:48:55.902Z,5.17
2022-09-24T21:51:26.837Z,3.70
2022-09-24T21:53:57.649Z,6.43
2022-09-24T21:56:25.512Z,6.00
2022-09-24T21:58:54.167Z,3.87
2022-09-24T22:01:26.018Z,4.27
2022-09-24T22:03:56.405Z,5.30
2022-09-24T22:06:28.668Z,3.63
2022-09-24T22:08:57.814Z,3.73
2022-09-24T22:11:27.402Z,4.80
2022-09-24T22:14:00.941Z,3.23
2022-09-24T22:16:29.218Z,5.27
2022-09-24T22:18:59.143Z,3.50
2022-09-24T22:21:27.336Z,4.67
2022-09-24T22:23:56.557Z,2.60
2022-09-24T22:26:26.116Z,3.37
2022-09-24T22:28:55.245Z,3.77
2022-09-24T22:31:23.560Z,6.73
2022-09-24T22:34:20.652Z,5.17
2022-09-24T22:36:50.241Z,4.90
2022-09-24T22:39:18.274Z,5.17
2022-09-24T22:41:46.401Z,3.67
2022-09-24T22:44:14.349Z,4.17
2022-09-24T22:46:42.358Z,2.80
2022-09-24T22:49:10.989Z,5.90
2022-09-24T22:51:39.493Z,2.13
2022-09-24T22:54:10.489Z,4.23
2022-09-24T22:56:38.492Z,1.90
2022-09-24T22:59:06.690Z,3.03
2022-09-24T23:01:39.457Z,4.87
2022-09-24T23:04:07.499Z,4.97
2022-09-24T23:06:35.462Z,3.20
2022-09-24T23:09:04.078Z,3.17
2022-09-24T23:11:34.980Z,4.17
2022-09-24T23:14:04.825Z,2.23
2022-09-24T23:16:34.659Z,5.47
2022-09-24T23:19:04.316Z,4.27
2022-09-24T23:21:33.537Z,2.87
2022-09-24T23:24:03.437Z,2.87
2022-09-24T23:26:32.959Z,3.63
2022-09-24T23:29:01.683Z,3.67
2022-09-24T23:31:31.438Z,2.90
2022-09-24T23:34:01.810Z,5.57
2022-09-24T23:36:31.946Z,2.43
2022-09-24T23:39:00.726Z,2.07
2022-09-24T23:41:30.877Z,2.17
2022-09-24T23:44:00.368Z,2.60
2022-09-24T23:46:28.568Z,4.00
2022-09-24T23:48:57.105Z,3.13
2022-09-24T23:51:28.126Z,5.03
2022-09-24T23:53:56.096Z,1.97
2022-09-24T23:56:24.096Z,6.20
2022-09-24T23:58:52.242Z,3.20
